sensor_id;sensor_type;location;lat;lon;timestamp;P1;durP1;ratioP1;P2;durP2;ratioP2
39792;SDS011;26080;42.264;24.536;2023-02-07T00:00:29;0.70;;;0.70;;
39792;SDS011;26080;42.264;24.536;2023-02-07T00:02:54;0.60;;;0.60;;
39792;SDS011;26080;42.264;24.536;2023-02-07T00:05:21;2.20;;;1.98;;
39792;SDS011;26080;42.264;24.536;2023-02-07T00:07:46;1.77;;;1.50;;
39792;SDS011;26080;42.264;24.536;2023-02-07T00:10:12;2.87;;;1.77;;
39792;SDS011;26080;42.264;24.536;2023-02-07T00:12:38;1.10;;;1.05;;
39792;SDS011;26080;42.264;24.536;2023-02-07T00:15:04;0.73;;;0.55;;
39792;SDS011;26080;42.264;24.536;2023-02-07T00:17:29;1.27;;;1.05;;
39792;SDS011;26080;42.264;24.536;2023-02-07T00:19:55;2.17;;;1.83;;
39792;SDS011;26080;42.264;24.536;2023-02-07T00:22:21;1.83;;;1.70;;
39792;SDS011;26080;42.264;24.536;2023-02-07T00:24:47;0.73;;;0.73;;
39792;SDS011;26080;42.264;24.536;2023-02-07T00:27:12;5.00;;;1.40;;
39792;SDS011;26080;42.264;24.536;2023-02-07T00:29:38;1.63;;;1.33;;
39792;SDS011;26080;42.264;24.536;2023-02-07T00:32:03;0.80;;;0.77;;
39792;SDS011;26080;42.264;24.536;2023-02-07T00:34:29;0.50;;;0.50;;
39792;SDS011;26080;42.264;24.536;2023-02-07T00:36:55;4.90;;;2.90;;
39792;SDS011;26080;42.264;24.536;2023-02-07T00:39:21;1.40;;;0.73;;
39792;SDS011;26080;42.264;24.536;2023-02-07T00:41:47;2.78;;;1.42;;
39792;SDS011;26080;42.264;24.536;2023-02-07T00:44:12;1.45;;;0.80;;
39792;SDS011;26080;42.264;24.536;2023-02-07T00:46:38;0.80;;;0.80;;
39792;SDS011;26080;42.264;24.536;2023-02-07T00:49:04;0.40;;;0.40;;
39792;SDS011;26080;42.264;24.536;2023-02-07T00:51:30;2.25;;;1.42;;
39792;SDS011;26080;42.264;24.536;2023-02-07T00:53:57;1.50;;;1.38;;
39792;SDS011;26080;42.264;24.536;2023-02-07T00:56:23;4.67;;;2.63;;
39792;SDS011;26080;42.264;24.536;2023-02-07T00:58:50;1.47;;;1.37;;
39792;SDS011;26080;42.264;24.536;2023-02-07T01:01:15;0.97;;;0.67;;
39792;SDS011;26080;42.264;24.536;2023-02-07T01:03:41;8.38;;;1.67;;
39792;SDS011;26080;42.264;24.536;2023-02-07T01:06:08;0.80;;;0.80;;
39792;SDS011;26080;42.264;24.536;2023-02-07T01:08:33;0.43;;;0.43;;
39792;SDS011;26080;42.264;24.536;2023-02-07T01:11:03;2.13;;;1.97;;
39792;SDS011;26080;42.264;24.536;2023-02-07T01:13:31;2.90;;;2.20;;
39792;SDS011;26080;42.264;24.536;2023-02-07T01:15:57;3.90;;;3.50;;
39792;SDS011;26080;42.264;24.536;2023-02-07T01:18:22;4.20;;;2.73;;
39792;SDS011;26080;42.264;24.536;2023-02-07T01:20:48;2.00;;;1.77;;
39792;SDS011;26080;42.264;24.536;2023-02-07T01:23:14;1.20;;;1.10;;
39792;SDS011;26080;42.264;24.536;2023-02-07T01:25:40;1.60;;;1.50;;
39792;SDS011;26080;42.264;24.536;2023-02-07T01:28:08;1.13;;;1.03;;
39792;SDS011;26080;42.264;24.536;2023-02-07T01:30:34;2.57;;;1.80;;
39792;SDS011;26080;42.264;24.536;2023-02-07T01:32:59;8.02;;;2.80;;
39792;SDS011;26080;42.264;24.536;2023-02-07T01:35:25;3.47;;;2.40;;
39792;SDS011;26080;42.264;24.536;2023-02-07T01:37:51;2.13;;;1.60;;
39792;SDS011;26080;42.264;24.536;2023-02-07T01:40:16;0.20;;;0.20;;
39792;SDS011;26080;42.264;24.536;2023-02-07T01:42:42;1.30;;;1.23;;
39792;SDS011;26080;42.264;24.536;2023-02-07T01:45:22;0.90;;;0.87;;
39792;SDS011;26080;42.264;24.536;2023-02-07T01:47:54;1.20;;;1.10;;
39792;SDS011;26080;42.264;24.536;2023-02-07T01:50:23;2.03;;;1.80;;
39792;SDS011;26080;42.264;24.536;2023-02-07T01:52:50;1.57;;;1.40;;
39792;SDS011;26080;42.264;24.536;2023-02-07T01:55:21;1.60;;;1.23;;
39792;SDS011;26080;42.264;24.536;2023-02-07T01:57:49;0.63;;;0.63;;
39792;SDS011;26080;42.264;24.536;2023-02-07T02:00:15;3.17;;;2.90;;
39792;SDS011;26080;42.264;24.536;2023-02-07T02:02:42;2.43;;;1.60;;
39792;SDS011;26080;42.264;24.536;2023-02-07T02:05:08;1.30;;;1.23;;
39792;SDS011;26080;42.264;24.536;2023-02-07T02:07:35;4.37;;;1.27;;
39792;SDS011;26080;42.264;24.536;2023-02-07T02:10:04;2.73;;;1.60;;
39792;SDS011;26080;42.264;24.536;2023-02-07T02:23:27;2.92;;;2.63;;
39792;SDS011;26080;42.264;24.536;2023-02-07T02:31:48;1.67;;;1.57;;
39792;SDS011;26080;42.264;24.536;2023-02-07T02:34:30;8.37;;;2.40;;
39792;SDS011;26080;42.264;24.536;2023-02-07T02:37:06;0.47;;;0.47;;
39792;SDS011;26080;42.264;24.536;2023-02-07T02:39:39;3.50;;;1.67;;
39792;SDS011;26080;42.264;24.536;2023-02-07T02:44:56;0.70;;;0.70;;
39792;SDS011;26080;42.264;24.536;2023-02-07T02:47:27;1.80;;;1.40;;
39792;SDS011;26080;42.264;24.536;2023-02-07T02:49:55;1.57;;;1.47;;
39792;SDS011;26080;42.264;24.536;2023-02-07T02:52:21;2.30;;;1.97;;
39792;SDS011;26080;42.264;24.536;2023-02-07T02:54:46;4.13;;;1.60;;
39792;SDS011;26080;42.264;24.536;2023-02-07T02:57:23;2.27;;;2.10;;
39792;SDS011;26080;42.264;24.536;2023-02-07T03:08:46;1.23;;;1.23;;
39792;SDS011;26080;42.264;24.536;2023-02-07T03:11:19;1.83;;;1.37;;
39792;SDS011;26080;42.264;24.536;2023-02-07T03:16:33;1.67;;;1.53;;
39792;SDS011;26080;42.264;24.536;2023-02-07T03:21:49;9.70;;;4.60;;
39792;SDS011;26080;42.264;24.536;2023-02-07T03:24:21;8.03;;;1.13;;
39792;SDS011;26080;42.264;24.536;2023-02-07T03:26:51;2.13;;;1.63;;
39792;SDS011;26080;42.264;24.536;2023-02-07T03:29:21;0.90;;;0.90;;
39792;SDS011;26080;42.264;24.536;2023-02-07T03:31:49;0.47;;;0.47;;
39792;SDS011;26080;42.264;24.536;2023-02-07T03:34:18;0.97;;;0.93;;
39792;SDS011;26080;42.264;24.536;2023-02-07T03:36:52;1.77;;;1.23;;
39792;SDS011;26080;42.264;24.536;2023-02-07T03:39:22;1.50;;;1.40;;
39792;SDS011;26080;42.264;24.536;2023-02-07T03:41:51;0.93;;;0.93;;
39792;SDS011;26080;42.264;24.536;2023-02-07T03:44:23;0.98;;;0.93;;
39792;SDS011;26080;42.264;24.536;2023-02-07T03:46:52;6.00;;;2.73;;
39792;SDS011;26080;42.264;24.536;2023-02-07T03:49:19;3.50;;;1.70;;
39792;SDS011;26080;42.264;24.536;2023-02-07T03:51:45;1.07;;;0.97;;
39792;SDS011;26080;42.264;24.536;2023-02-07T03:54:12;2.03;;;1.83;;
39792;SDS011;26080;42.264;24.536;2023-02-07T03:56:38;4.87;;;3.70;;
39792;SDS011;26080;42.264;24.536;2023-02-07T03:59:03;3.57;;;2.23;;
39792;SDS011;26080;42.264;24.536;2023-02-07T04:01:29;2.35;;;2.22;;
39792;SDS011;26080;42.264;24.536;2023-02-07T04:03:55;2.58;;;2.40;;
39792;SDS011;26080;42.264;24.536;2023-02-07T04:06:20;0.87;;;0.87;;
39792;SDS011;26080;42.264;24.536;2023-02-07T04:08:46;2.27;;;2.17;;
39792;SDS011;26080;42.264;24.536;2023-02-07T04:11:11;2.90;;;2.20;;
39792;SDS011;26080;42.264;24.536;2023-02-07T04:13:37;5.40;;;2.57;;
39792;SDS011;26080;42.264;24.536;2023-02-07T04:16:03;0.25;;;0.25;;
39792;SDS011;26080;42.264;24.536;2023-02-07T04:18:30;1.03;;;0.93;;
39792;SDS011;26080;42.264;24.536;2023-02-07T04:20:59;1.60;;;1.50;;
39792;SDS011;26080;42.264;24.536;2023-02-07T04:23:26;1.70;;;1.60;;
39792;SDS011;26080;42.264;24.536;2023-02-07T04:25:51;3.97;;;3.57;;
39792;SDS011;26080;42.264;24.536;2023-02-07T04:28:17;3.33;;;3.03;;
39792;SDS011;26080;42.264;24.536;2023-02-07T04:30:43;0.60;;;0.60;;
39792;SDS011;26080;42.264;24.536;2023-02-07T04:33:08;4.53;;;2.83;;
39792;SDS011;26080;42.264;24.536;2023-02-07T04:35:34;1.30;;;1.17;;
39792;SDS011;26080;42.264;24.536;2023-02-07T04:37:59;3.13;;;2.17;;
39792;SDS011;26080;42.264;24.536;2023-02-07T04:40:25;1.63;;;1.53;;
39792;SDS011;26080;42.264;24.536;2023-02-07T04:42:50;2.57;;;1.93;;
39792;SDS011;26080;42.264;24.536;2023-02-07T04:45:16;1.10;;;1.00;;
39792;SDS011;26080;42.264;24.536;2023-02-07T04:47:41;1.47;;;1.30;;
39792;SDS011;26080;42.264;24.536;2023-02-07T04:50:07;4.53;;;1.33;;
39792;SDS011;26080;42.264;24.536;2023-02-07T04:52:33;1.27;;;1.20;;
39792;SDS011;26080;42.264;24.536;2023-02-07T04:54:58;0.37;;;0.37;;
39792;SDS011;26080;42.264;24.536;2023-02-07T04:57:23;0.50;;;0.50;;
39792;SDS011;26080;42.264;24.536;2023-02-07T04:59:49;0.73;;;0.73;;
39792;SDS011;26080;42.264;24.536;2023-02-07T05:02:15;4.30;;;1.60;;
39792;SDS011;26080;42.264;24.536;2023-02-07T05:04:40;2.43;;;0.80;;
39792;SDS011;26080;42.264;24.536;2023-02-07T05:07:05;0.93;;;0.93;;
39792;SDS011;26080;42.264;24.536;2023-02-07T05:09:31;7.87;;;2.07;;
39792;SDS011;26080;42.264;24.536;2023-02-07T05:11:57;23.53;;;1.47;;
39792;SDS011;26080;42.264;24.536;2023-02-07T05:14:22;0.40;;;0.40;;
39792;SDS011;26080;42.264;24.536;2023-02-07T05:16:47;0.40;;;0.40;;
39792;SDS011;26080;42.264;24.536;2023-02-07T05:19:13;1.70;;;1.60;;
39792;SDS011;26080;42.264;24.536;2023-02-07T05:21:39;1.03;;;0.97;;
39792;SDS011;26080;42.264;24.536;2023-02-07T05:24:07;5.20;;;2.47;;
39792;SDS011;26080;42.264;24.536;2023-02-07T05:26:33;1.10;;;1.10;;
39792;SDS011;26080;42.264;24.536;2023-02-07T05:28:58;2.03;;;1.90;;
39792;SDS011;26080;42.264;24.536;2023-02-07T05:31:24;6.47;;;4.63;;
39792;SDS011;26080;42.264;24.536;2023-02-07T05:34:09;3.37;;;3.07;;
39792;SDS011;26080;42.264;24.536;2023-02-07T05:36:35;8.07;;;7.33;;
39792;SDS011;26080;42.264;24.536;2023-02-07T05:39:00;3.20;;;2.93;;
39792;SDS011;26080;42.264;24.536;2023-02-07T05:41:26;4.97;;;3.97;;
39792;SDS011;26080;42.264;24.536;2023-02-07T05:43:51;7.80;;;4.33;;
39792;SDS011;26080;42.264;24.536;2023-02-07T05:46:17;3.60;;;2.47;;
39792;SDS011;26080;42.264;24.536;2023-02-07T05:48:42;12.40;;;5.67;;
39792;SDS011;26080;42.264;24.536;2023-02-07T05:51:08;1.60;;;1.43;;
39792;SDS011;26080;42.264;24.536;2023-02-07T05:53:33;1.57;;;1.47;;
39792;SDS011;26080;42.264;24.536;2023-02-07T05:55:59;2.23;;;1.40;;
39792;SDS011;26080;42.264;24.536;2023-02-07T05:58:24;4.37;;;3.57;;
39792;SDS011;26080;42.264;24.536;2023-02-07T06:00:50;4.17;;;3.50;;
39792;SDS011;26080;42.264;24.536;2023-02-07T06:03:15;7.70;;;3.60;;
39792;SDS011;26080;42.264;24.536;2023-02-07T06:05:41;2.70;;;2.30;;
39792;SDS011;26080;42.264;24.536;2023-02-07T06:08:06;2.77;;;2.40;;
39792;SDS011;26080;42.264;24.536;2023-02-07T06:10:32;4.20;;;2.23;;
39792;SDS011;26080;42.264;24.536;2023-02-07T06:12:57;2.17;;;2.07;;
39792;SDS011;26080;42.264;24.536;2023-02-07T06:15:23;3.93;;;3.43;;
39792;SDS011;26080;42.264;24.536;2023-02-07T06:17:48;4.30;;;2.60;;
39792;SDS011;26080;42.264;24.536;2023-02-07T06:20:14;2.40;;;1.73;;
39792;SDS011;26080;42.264;24.536;2023-02-07T06:22:40;6.20;;;3.93;;
39792;SDS011;26080;42.264;24.536;2023-02-07T06:25:05;3.63;;;3.10;;
39792;SDS011;26080;42.264;24.536;2023-02-07T06:27:35;8.40;;;3.03;;
39792;SDS011;26080;42.264;24.536;2023-02-07T06:30:02;5.43;;;3.23;;
39792;SDS011;26080;42.264;24.536;2023-02-07T06:32:28;7.67;;;5.00;;
39792;SDS011;26080;42.264;24.536;2023-02-07T06:34:53;11.27;;;8.60;;
39792;SDS011;26080;42.264;24.536;2023-02-07T06:37:18;9.30;;;8.27;;
39792;SDS011;26080;42.264;24.536;2023-02-07T06:39:44;12.80;;;9.60;;
39792;SDS011;26080;42.264;24.536;2023-02-07T06:42:09;9.70;;;8.03;;
39792;SDS011;26080;42.264;24.536;2023-02-07T06:44:35;11.30;;;7.73;;
39792;SDS011;26080;42.264;24.536;2023-02-07T06:47:01;10.83;;;9.47;;
39792;SDS011;26080;42.264;24.536;2023-02-07T06:49:26;8.33;;;6.63;;
39792;SDS011;26080;42.264;24.536;2023-02-07T06:51:52;8.90;;;5.30;;
39792;SDS011;26080;42.264;24.536;2023-02-07T06:54:17;5.57;;;3.67;;
39792;SDS011;26080;42.264;24.536;2023-02-07T06:56:43;3.43;;;2.77;;
39792;SDS011;26080;42.264;24.536;2023-02-07T06:59:11;2.97;;;2.70;;
39792;SDS011;26080;42.264;24.536;2023-02-07T07:01:37;1.97;;;1.87;;
39792;SDS011;26080;42.264;24.536;2023-02-07T07:04:02;2.93;;;2.47;;
39792;SDS011;26080;42.264;24.536;2023-02-07T07:06:28;5.57;;;2.93;;
39792;SDS011;26080;42.264;24.536;2023-02-07T07:09:03;6.53;;;5.00;;
39792;SDS011;26080;42.264;24.536;2023-02-07T07:11:31;12.63;;;5.40;;
39792;SDS011;26080;42.264;24.536;2023-02-07T07:13:57;2.93;;;2.63;;
39792;SDS011;26080;42.264;24.536;2023-02-07T07:16:24;12.00;;;6.67;;
39792;SDS011;26080;42.264;24.536;2023-02-07T07:18:49;10.53;;;2.87;;
39792;SDS011;26080;42.264;24.536;2023-02-07T07:21:15;2.67;;;1.93;;
39792;SDS011;26080;42.264;24.536;2023-02-07T07:23:40;20.03;;;4.00;;
39792;SDS011;26080;42.264;24.536;2023-02-07T07:26:06;3.92;;;1.27;;
39792;SDS011;26080;42.264;24.536;2023-02-07T07:28:31;2.83;;;2.63;;
39792;SDS011;26080;42.264;24.536;2023-02-07T07:31:00;3.00;;;2.73;;
39792;SDS011;26080;42.264;24.536;2023-02-07T07:33:30;5.97;;;3.38;;
39792;SDS011;26080;42.264;24.536;2023-02-07T07:35:56;9.80;;;3.50;;
39792;SDS011;26080;42.264;24.536;2023-02-07T07:38:22;3.27;;;3.00;;
39792;SDS011;26080;42.264;24.536;2023-02-07T07:40:48;5.23;;;4.73;;
39792;SDS011;26080;42.264;24.536;2023-02-07T07:43:13;7.97;;;3.90;;
39792;SDS011;26080;42.264;24.536;2023-02-07T07:45:39;4.73;;;3.33;;
39792;SDS011;26080;42.264;24.536;2023-02-07T07:48:04;7.38;;;3.63;;
39792;SDS011;26080;42.264;24.536;2023-02-07T07:50:30;5.35;;;4.55;;
39792;SDS011;26080;42.264;24.536;2023-02-07T07:52:55;5.72;;;4.53;;
39792;SDS011;26080;42.264;24.536;2023-02-07T07:55:21;10.03;;;4.70;;
39792;SDS011;26080;42.264;24.536;2023-02-07T07:57:46;10.40;;;4.47;;
39792;SDS011;26080;42.264;24.536;2023-02-07T08:00:12;6.13;;;3.50;;
39792;SDS011;26080;42.264;24.536;2023-02-07T08:02:40;7.45;;;3.60;;
39792;SDS011;26080;42.264;24.536;2023-02-07T08:05:06;3.80;;;2.40;;
39792;SDS011;26080;42.264;24.536;2023-02-07T08:07:32;2.95;;;2.67;;
39792;SDS011;26080;42.264;24.536;2023-02-07T08:09:57;4.90;;;1.75;;
39792;SDS011;26080;42.264;24.536;2023-02-07T08:12:23;2.40;;;1.40;;
39792;SDS011;26080;42.264;24.536;2023-02-07T08:14:49;1.05;;;1.05;;
39792;SDS011;26080;42.264;24.536;2023-02-07T08:17:14;1.40;;;1.30;;
39792;SDS011;26080;42.264;24.536;2023-02-07T08:19:39;1.73;;;1.60;;
39792;SDS011;26080;42.264;24.536;2023-02-07T08:22:05;3.53;;;1.83;;
39792;SDS011;26080;42.264;24.536;2023-02-07T08:24:30;1.08;;;0.98;;
39792;SDS011;26080;42.264;24.536;2023-02-07T08:26:57;1.08;;;0.98;;
39792;SDS011;26080;42.264;24.536;2023-02-07T08:29:23;10.27;;;2.67;;
39792;SDS011;26080;42.264;24.536;2023-02-07T08:31:48;7.68;;;1.73;;
39792;SDS011;26080;42.264;24.536;2023-02-07T08:34:14;2.50;;;1.90;;
39792;SDS011;26080;42.264;24.536;2023-02-07T08:36:39;5.20;;;2.28;;
39792;SDS011;26080;42.264;24.536;2023-02-07T08:39:05;1.73;;;0.90;;
39792;SDS011;26080;42.264;24.536;2023-02-07T08:41:30;1.77;;;1.67;;
39792;SDS011;26080;42.264;24.536;2023-02-07T08:43:56;0.75;;;0.75;;
39792;SDS011;26080;42.264;24.536;2023-02-07T08:46:21;3.50;;;1.63;;
39792;SDS011;26080;42.264;24.536;2023-02-07T08:48:47;1.00;;;0.90;;
39792;SDS011;26080;42.264;24.536;2023-02-07T08:51:12;1.23;;;0.63;;
39792;SDS011;26080;42.264;24.536;2023-02-07T08:53:38;1.88;;;1.70;;
39792;SDS011;26080;42.264;24.536;2023-02-07T08:56:03;1.27;;;1.17;;
39792;SDS011;26080;42.264;24.536;2023-02-07T08:58:29;0.73;;;0.60;;
39792;SDS011;26080;42.264;24.536;2023-02-07T09:00:55;0.52;;;0.52;;
39792;SDS011;26080;42.264;24.536;2023-02-07T09:03:20;2.22;;;1.40;;
39792;SDS011;26080;42.264;24.536;2023-02-07T09:05:45;2.25;;;1.35;;
39792;SDS011;26080;42.264;24.536;2023-02-07T09:08:11;0.45;;;0.45;;
39792;SDS011;26080;42.264;24.536;2023-02-07T09:10:36;0.43;;;0.20;;
39792;SDS011;26080;42.264;24.536;2023-02-07T09:13:02;1.55;;;0.50;;
39792;SDS011;26080;42.264;24.536;2023-02-07T09:15:27;4.13;;;0.68;;
39792;SDS011;26080;42.264;24.536;2023-02-07T09:17:53;8.15;;;1.73;;
39792;SDS011;26080;42.264;24.536;2023-02-07T09:20:19;1.40;;;1.30;;
39792;SDS011;26080;42.264;24.536;2023-02-07T09:22:44;0.28;;;0.28;;
39792;SDS011;26080;42.264;24.536;2023-02-07T09:25:29;0.32;;;0.32;;
39792;SDS011;26080;42.264;24.536;2023-02-07T09:27:54;0.10;;;0.10;;
39792;SDS011;26080;42.264;24.536;2023-02-07T09:30:20;1.65;;;0.85;;
39792;SDS011;26080;42.264;24.536;2023-02-07T09:32:46;0.47;;;0.47;;
39792;SDS011;26080;42.264;24.536;2023-02-07T09:35:12;2.28;;;1.75;;
39792;SDS011;26080;42.264;24.536;2023-02-07T09:37:37;0.50;;;0.50;;
39792;SDS011;26080;42.264;24.536;2023-02-07T09:40:08;0.70;;;0.70;;
39792;SDS011;26080;42.264;24.536;2023-02-07T09:42:56;0.40;;;0.40;;
39792;SDS011;26080;42.264;24.536;2023-02-07T09:45:41;0.80;;;0.80;;
39792;SDS011;26080;42.264;24.536;2023-02-07T09:48:13;0.70;;;0.52;;
39792;SDS011;26080;42.264;24.536;2023-02-07T09:50:48;0.32;;;0.32;;
39792;SDS011;26080;42.264;24.536;2023-02-07T09:55:55;1.98;;;1.40;;
39792;SDS011;26080;42.264;24.536;2023-02-07T10:01:02;1.55;;;1.00;;
39792;SDS011;26080;42.264;24.536;2023-02-07T10:03:42;1.00;;;0.70;;
39792;SDS011;26080;42.264;24.536;2023-02-07T10:06:16;0.60;;;0.50;;
39792;SDS011;26080;42.264;24.536;2023-02-07T10:08:48;1.58;;;1.25;;
39792;SDS011;26080;42.264;24.536;2023-02-07T10:11:52;5.57;;;2.33;;
39792;SDS011;26080;42.264;24.536;2023-02-07T10:31:17;1.05;;;0.60;;
39792;SDS011;26080;42.264;24.536;2023-02-07T10:33:47;0.63;;;0.55;;
39792;SDS011;26080;42.264;24.536;2023-02-07T10:36:16;0.85;;;0.85;;
39792;SDS011;26080;42.264;24.536;2023-02-07T10:41:25;0.75;;;0.38;;
39792;SDS011;26080;42.264;24.536;2023-02-07T10:44:16;2.28;;;2.08;;
39792;SDS011;26080;42.264;24.536;2023-02-07T10:46:44;0.60;;;0.60;;
39792;SDS011;26080;42.264;24.536;2023-02-07T10:49:19;0.73;;;0.73;;
39792;SDS011;26080;42.264;24.536;2023-02-07T10:51:46;14.93;;;3.53;;
39792;SDS011;26080;42.264;24.536;2023-02-07T10:54:17;1.95;;;1.77;;
39792;SDS011;26080;42.264;24.536;2023-02-07T10:56:49;4.68;;;2.08;;
39792;SDS011;26080;42.264;24.536;2023-02-07T10:59:49;19.00;;;8.60;;
39792;SDS011;26080;42.264;24.536;2023-02-07T11:04:52;1.25;;;1.17;;
39792;SDS011;26080;42.264;24.536;2023-02-07T11:07:18;0.82;;;0.82;;
39792;SDS011;26080;42.264;24.536;2023-02-07T11:09:45;3.38;;;2.20;;
39792;SDS011;26080;42.264;24.536;2023-02-07T11:12:12;5.32;;;1.65;;
39792;SDS011;26080;42.264;24.536;2023-02-07T11:14:40;1.55;;;0.90;;
39792;SDS011;26080;42.264;24.536;2023-02-07T11:17:05;0.52;;;0.47;;
39792;SDS011;26080;42.264;24.536;2023-02-07T11:19:30;0.57;;;0.47;;
39792;SDS011;26080;42.264;24.536;2023-02-07T11:22:06;2.92;;;0.85;;
39792;SDS011;26080;42.264;24.536;2023-02-07T11:24:38;1.05;;;1.02;;
39792;SDS011;26080;42.264;24.536;2023-02-07T11:32:14;0.40;;;0.40;;
39792;SDS011;26080;42.264;24.536;2023-02-07T11:34:47;3.85;;;1.52;;
39792;SDS011;26080;42.264;24.536;2023-02-07T11:39:50;0.63;;;0.63;;
39792;SDS011;26080;42.264;24.536;2023-02-07T11:42:22;3.80;;;1.25;;
39792;SDS011;26080;42.264;24.536;2023-02-07T11:44:50;2.63;;;1.00;;
39792;SDS011;26080;42.264;24.536;2023-02-07T11:47:18;0.10;;;0.10;;
39792;SDS011;26080;42.264;24.536;2023-02-07T11:49:54;0.38;;;0.30;;
39792;SDS011;26080;42.264;24.536;2023-02-07T11:52:23;1.27;;;1.17;;
39792;SDS011;26080;42.264;24.536;2023-02-07T11:54:51;0.17;;;0.17;;
39792;SDS011;26080;42.264;24.536;2023-02-07T11:57:18;0.52;;;0.45;;
39792;SDS011;26080;42.264;24.536;2023-02-07T12:02:22;1.55;;;0.77;;
39792;SDS011;26080;42.264;24.536;2023-02-07T12:04:49;0.57;;;0.57;;
39792;SDS011;26080;42.264;24.536;2023-02-07T12:07:28;0.73;;;0.68;;
39792;SDS011;26080;42.264;24.536;2023-02-07T12:10:02;0.73;;;0.73;;
39792;SDS011;26080;42.264;24.536;2023-02-07T12:12:38;3.20;;;1.65;;
39792;SDS011;26080;42.264;24.536;2023-02-07T12:15:12;0.40;;;0.40;;
39792;SDS011;26080;42.264;24.536;2023-02-07T12:18:02;1.55;;;1.20;;
39792;SDS011;26080;42.264;24.536;2023-02-07T12:20:41;10.43;;;2.05;;
39792;SDS011;26080;42.264;24.536;2023-02-07T12:23:18;1.23;;;0.65;;
39792;SDS011;26080;42.264;24.536;2023-02-07T12:34:35;1.58;;;1.15;;
39792;SDS011;26080;42.264;24.536;2023-02-07T12:37:10;0.88;;;0.22;;
39792;SDS011;26080;42.264;24.536;2023-02-07T12:40:13;1.30;;;1.20;;
39792;SDS011;26080;42.264;24.536;2023-02-07T12:42:46;0.75;;;0.55;;
39792;SDS011;26080;42.264;24.536;2023-02-07T12:45:22;2.38;;;0.65;;
39792;SDS011;26080;42.264;24.536;2023-02-07T12:48:27;0.40;;;0.40;;
39792;SDS011;26080;42.264;24.536;2023-02-07T12:54:04;2.15;;;1.65;;
39792;SDS011;26080;42.264;24.536;2023-02-07T13:02:39;0.85;;;0.85;;
39792;SDS011;26080;42.264;24.536;2023-02-07T13:05:51;0.28;;;0.28;;
39792;SDS011;26080;42.264;24.536;2023-02-07T13:08:03;0.32;;;0.32;;
39792;SDS011;26080;42.264;24.536;2023-02-07T13:11:42;0.50;;;0.50;;
39792;SDS011;26080;42.264;24.536;2023-02-07T13:13:47;0.90;;;0.80;;
39792;SDS011;26080;42.264;24.536;2023-02-07T13:16:30;1.60;;;1.30;;
39792;SDS011;26080;42.264;24.536;2023-02-07T13:24:18;3.00;;;2.00;;
39792;SDS011;26080;42.264;24.536;2023-02-07T13:27:04;0.45;;;0.30;;
39792;SDS011;26080;42.264;24.536;2023-02-07T13:29:35;2.13;;;1.92;;
39792;SDS011;26080;42.264;24.536;2023-02-07T13:32:02;0.85;;;0.60;;
39792;SDS011;26080;42.264;24.536;2023-02-07T13:34:40;1.85;;;0.60;;
39792;SDS011;26080;42.264;24.536;2023-02-07T13:37:10;0.50;;;0.47;;
39792;SDS011;26080;42.264;24.536;2023-02-07T13:40:01;1.30;;;0.93;;
39792;SDS011;26080;42.264;24.536;2023-02-07T13:42:42;5.47;;;0.85;;
39792;SDS011;26080;42.264;24.536;2023-02-07T13:45:20;2.28;;;2.00;;
39792;SDS011;26080;42.264;24.536;2023-02-07T13:48:13;1.08;;;1.08;;
39792;SDS011;26080;42.264;24.536;2023-02-07T13:56:36;0.60;;;0.60;;
39792;SDS011;26080;42.264;24.536;2023-02-07T13:59:36;6.57;;;2.75;;
39792;SDS011;26080;42.264;24.536;2023-02-07T14:02:04;3.88;;;3.50;;
39792;SDS011;26080;42.264;24.536;2023-02-07T14:04:57;1.20;;;1.10;;
39792;SDS011;26080;42.264;24.536;2023-02-07T14:07:31;1.98;;;1.15;;
39792;SDS011;26080;42.264;24.536;2023-02-07T14:10:00;1.55;;;1.13;;
39792;SDS011;26080;42.264;24.536;2023-02-07T14:12:27;0.38;;;0.35;;
39792;SDS011;26080;42.264;24.536;2023-02-07T14:17:55;5.38;;;2.75;;
39792;SDS011;26080;42.264;24.536;2023-02-07T14:23:03;1.65;;;1.33;;
39792;SDS011;26080;42.264;24.536;2023-02-07T14:25:39;4.65;;;2.35;;
39792;SDS011;26080;42.264;24.536;2023-02-07T14:31:22;0.70;;;0.70;;
39792;SDS011;26080;42.264;24.536;2023-02-07T14:34:09;2.78;;;2.58;;
39792;SDS011;26080;42.264;24.536;2023-02-07T14:36:39;10.15;;;7.70;;
39792;SDS011;26080;42.264;24.536;2023-02-07T14:41:42;1.17;;;1.02;;
39792;SDS011;26080;42.264;24.536;2023-02-07T14:47:07;4.30;;;2.17;;
39792;SDS011;26080;42.264;24.536;2023-02-07T14:52:10;8.98;;;1.95;;
39792;SDS011;26080;42.264;24.536;2023-02-07T15:02:54;2.75;;;1.50;;
39792;SDS011;26080;42.264;24.536;2023-02-07T15:05:56;1.13;;;0.77;;
39792;SDS011;26080;42.264;24.536;2023-02-07T15:08:24;1.55;;;0.85;;
39792;SDS011;26080;42.264;24.536;2023-02-07T15:13:36;2.70;;;1.25;;
39792;SDS011;26080;42.264;24.536;2023-02-07T15:16:03;1.83;;;1.35;;
39792;SDS011;26080;42.264;24.536;2023-02-07T15:18:41;11.15;;;2.88;;
39792;SDS011;26080;42.264;24.536;2023-02-07T15:21:15;2.85;;;1.00;;
39792;SDS011;26080;42.264;24.536;2023-02-07T15:23:43;1.02;;;0.90;;
39792;SDS011;26080;42.264;24.536;2023-02-07T15:26:16;3.28;;;2.47;;
39792;SDS011;26080;42.264;24.536;2023-02-07T15:28:43;1.48;;;1.38;;
39792;SDS011;26080;42.264;24.536;2023-02-07T15:31:12;3.70;;;1.58;;
39792;SDS011;26080;42.264;24.536;2023-02-07T15:36:26;2.60;;;0.82;;
39792;SDS011;26080;42.264;24.536;2023-02-07T15:39:00;0.70;;;0.70;;
39792;SDS011;26080;42.264;24.536;2023-02-07T15:41:28;1.48;;;1.38;;
39792;SDS011;26080;42.264;24.536;2023-02-07T15:43:58;2.75;;;2.55;;
39792;SDS011;26080;42.264;24.536;2023-02-07T15:54:23;4.60;;;2.28;;
39792;SDS011;26080;42.264;24.536;2023-02-07T15:56:51;1.20;;;1.10;;
39792;SDS011;26080;42.264;24.536;2023-02-07T15:59:29;4.72;;;4.13;;
39792;SDS011;26080;42.264;24.536;2023-02-07T16:01:56;24.15;;;1.98;;
39792;SDS011;26080;42.264;24.536;2023-02-07T16:04:28;3.05;;;2.08;;
39792;SDS011;26080;42.264;24.536;2023-02-07T16:09:35;2.33;;;2.13;;
39792;SDS011;26080;42.264;24.536;2023-02-07T16:12:20;3.08;;;2.53;;
39792;SDS011;26080;42.264;24.536;2023-02-07T16:14:51;10.77;;;6.97;;
39792;SDS011;26080;42.264;24.536;2023-02-07T16:17:21;3.65;;;2.97;;
39792;SDS011;26080;42.264;24.536;2023-02-07T16:19:48;1.57;;;1.47;;
39792;SDS011;26080;42.264;24.536;2023-02-07T16:22:15;5.77;;;2.23;;
39792;SDS011;26080;42.264;24.536;2023-02-07T16:24:44;4.53;;;2.60;;
39792;SDS011;26080;42.264;24.536;2023-02-07T16:27:21;1.80;;;1.70;;
39792;SDS011;26080;42.264;24.536;2023-02-07T16:29:52;4.17;;;1.93;;
39792;SDS011;26080;42.264;24.536;2023-02-07T16:32:18;4.68;;;3.17;;
39792;SDS011;26080;42.264;24.536;2023-02-07T16:34:44;2.95;;;1.50;;
39792;SDS011;26080;42.264;24.536;2023-02-07T16:37:10;4.90;;;2.37;;
39792;SDS011;26080;42.264;24.536;2023-02-07T16:39:37;3.60;;;3.15;;
39792;SDS011;26080;42.264;24.536;2023-02-07T16:42:04;2.20;;;2.00;;
39792;SDS011;26080;42.264;24.536;2023-02-07T16:44:32;1.08;;;0.98;;
39792;SDS011;26080;42.264;24.536;2023-02-07T16:47:03;0.67;;;0.67;;
39792;SDS011;26080;42.264;24.536;2023-02-07T16:49:29;1.07;;;0.83;;
39792;SDS011;26080;42.264;24.536;2023-02-07T16:51:55;1.63;;;1.53;;
39792;SDS011;26080;42.264;24.536;2023-02-07T16:54:21;1.27;;;0.90;;
39792;SDS011;26080;42.264;24.536;2023-02-07T16:56:48;3.93;;;1.57;;
39792;SDS011;26080;42.264;24.536;2023-02-07T16:59:19;5.20;;;3.53;;
39792;SDS011;26080;42.264;24.536;2023-02-07T17:01:46;7.47;;;4.25;;
39792;SDS011;26080;42.264;24.536;2023-02-07T17:04:13;2.37;;;1.80;;
39792;SDS011;26080;42.264;24.536;2023-02-07T17:06:39;6.30;;;4.20;;